sensor_id;sensor_type;location;lat;lon;timestamp;P1;durP1;ratioP1;P2;durP2;ratioP2
68940;SDS011;55982;51.476;7.552;2023-03-19T00:01:54;7.22;;;3.45;;
68940;SDS011;55982;51.476;7.552;2023-03-19T00:04:20;11.75;;;3.28;;
68940;SDS011;55982;51.476;7.552;2023-03-19T00:06:47;8.45;;;3.55;;
68940;SDS011;55982;51.476;7.552;2023-03-19T00:09:13;7.05;;;3.55;;
68940;SDS011;55982;51.476;7.552;2023-03-19T00:11:38;6.65;;;3.00;;
68940;SDS011;55982;51.476;7.552;2023-03-19T00:14:04;6.25;;;2.88;;
68940;SDS011;55982;51.476;7.552;2023-03-19T00:16:29;4.95;;;2.90;;
68940;SDS011;55982;51.476;7.552;2023-03-19T00:18:55;5.28;;;2.83;;
68940;SDS011;55982;51.476;7.552;2023-03-19T00:21:21;4.80;;;2.95;;
68940;SDS011;55982;51.476;7.552;2023-03-19T00:23:47;9.25;;;3.20;;
68940;SDS011;55982;51.476;7.552;2023-03-19T00:26:12;5.78;;;3.17;;
68940;SDS011;55982;51.476;7.552;2023-03-19T00:28:37;7.53;;;3.17;;
68940;SDS011;55982;51.476;7.552;2023-03-19T00:31:13;6.35;;;3.17;;
68940;SDS011;55982;51.476;7.552;2023-03-19T00:33:40;10.27;;;3.30;;
68940;SDS011;55982;51.476;7.552;2023-03-19T00:36:06;8.88;;;3.05;;
68940;SDS011;55982;51.476;7.552;2023-03-19T00:38:33;7.38;;;3.08;;
68940;SDS011;55982;51.476;7.552;2023-03-19T00:41:00;7.72;;;3.60;;
68940;SDS011;55982;51.476;7.552;2023-03-19T00:43:25;8.25;;;3.17;;
68940;SDS011;55982;51.476;7.552;2023-03-19T00:45:52;7.85;;;3.08;;
68940;SDS011;55982;51.476;7.552;2023-03-19T00:48:18;7.53;;;3.40;;
68940;SDS011;55982;51.476;7.552;2023-03-19T00:50:45;7.00;;;3.30;;
68940;SDS011;55982;51.476;7.552;2023-03-19T00:53:11;6.05;;;3.05;;
68940;SDS011;55982;51.476;7.552;2023-03-19T00:55:36;6.90;;;3.00;;
68940;SDS011;55982;51.476;7.552;2023-03-19T00:58:01;8.02;;;3.53;;
68940;SDS011;55982;51.476;7.552;2023-03-19T01:00:27;6.65;;;3.28;;
68940;SDS011;55982;51.476;7.552;2023-03-19T01:02:52;6.32;;;2.95;;
68940;SDS011;55982;51.476;7.552;2023-03-19T01:05:18;7.32;;;3.78;;
68940;SDS011;55982;51.476;7.552;2023-03-19T01:07:43;7.65;;;3.38;;
68940;SDS011;55982;51.476;7.552;2023-03-19T01:10:09;11.18;;;3.30;;
68940;SDS011;55982;51.476;7.552;2023-03-19T01:12:35;7.32;;;3.25;;
68940;SDS011;55982;51.476;7.552;2023-03-19T01:15:01;9.65;;;3.60;;
68940;SDS011;55982;51.476;7.552;2023-03-19T01:17:26;7.45;;;3.33;;
68940;SDS011;55982;51.476;7.552;2023-03-19T01:19:52;7.25;;;3.05;;
68940;SDS011;55982;51.476;7.552;2023-03-19T01:22:17;6.45;;;3.22;;
68940;SDS011;55982;51.476;7.552;2023-03-19T01:24:43;8.15;;;3.42;;
68940;SDS011;55982;51.476;7.552;2023-03-19T01:27:08;5.82;;;3.05;;
68940;SDS011;55982;51.476;7.552;2023-03-19T01:29:34;5.47;;;3.13;;
68940;SDS011;55982;51.476;7.552;2023-03-19T01:32:00;7.90;;;3.30;;
68940;SDS011;55982;51.476;7.552;2023-03-19T01:34:26;7.05;;;3.47;;
68940;SDS011;55982;51.476;7.552;2023-03-19T01:36:51;11.18;;;3.70;;
68940;SDS011;55982;51.476;7.552;2023-03-19T01:39:17;6.65;;;3.45;;
68940;SDS011;55982;51.476;7.552;2023-03-19T01:41:43;8.07;;;3.22;;
68940;SDS011;55982;51.476;7.552;2023-03-19T01:44:24;6.28;;;3.50;;
68940;SDS011;55982;51.476;7.552;2023-03-19T01:46:51;9.50;;;3.55;;
68940;SDS011;55982;51.476;7.552;2023-03-19T01:49:17;7.60;;;3.88;;
68940;SDS011;55982;51.476;7.552;2023-03-19T01:51:45;9.50;;;3.53;;
68940;SDS011;55982;51.476;7.552;2023-03-19T01:54:16;10.38;;;3.75;;
68940;SDS011;55982;51.476;7.552;2023-03-19T01:56:45;9.93;;;4.38;;
68940;SDS011;55982;51.476;7.552;2023-03-19T01:59:17;10.93;;;3.97;;
68940;SDS011;55982;51.476;7.552;2023-03-19T02:01:52;6.40;;;4.28;;
68940;SDS011;55982;51.476;7.552;2023-03-19T02:04:22;10.07;;;4.37;;
68940;SDS011;55982;51.476;7.552;2023-03-19T02:06:50;7.35;;;3.88;;
68940;SDS011;55982;51.476;7.552;2023-03-19T02:09:18;9.15;;;3.63;;
68940;SDS011;55982;51.476;7.552;2023-03-19T02:11:44;10.20;;;4.10;;
68940;SDS011;55982;51.476;7.552;2023-03-19T02:14:10;7.13;;;3.40;;
68940;SDS011;55982;51.476;7.552;2023-03-19T02:16:37;8.73;;;3.88;;
68940;SDS011;55982;51.476;7.552;2023-03-19T02:19:03;9.32;;;3.80;;
68940;SDS011;55982;51.476;7.552;2023-03-19T02:21:32;8.05;;;3.97;;
68940;SDS011;55982;51.476;7.552;2023-03-19T02:26:47;6.13;;;3.50;;
68940;SDS011;55982;51.476;7.552;2023-03-19T02:29:12;8.20;;;3.92;;
68940;SDS011;55982;51.476;7.552;2023-03-19T02:31:38;5.53;;;3.13;;
68940;SDS011;55982;51.476;7.552;2023-03-19T02:36:46;8.05;;;3.15;;
68940;SDS011;55982;51.476;7.552;2023-03-19T02:39:28;9.20;;;3.40;;
68940;SDS011;55982;51.476;7.552;2023-03-19T02:41:57;6.20;;;3.15;;
68940;SDS011;55982;51.476;7.552;2023-03-19T02:44:24;7.60;;;3.13;;
68940;SDS011;55982;51.476;7.552;2023-03-19T02:46:50;5.22;;;3.30;;
68940;SDS011;55982;51.476;7.552;2023-03-19T02:49:16;7.45;;;3.33;;
68940;SDS011;55982;51.476;7.552;2023-03-19T02:51:41;6.20;;;2.95;;
68940;SDS011;55982;51.476;7.552;2023-03-19T02:54:07;7.15;;;3.08;;
68940;SDS011;55982;51.476;7.552;2023-03-19T02:56:32;6.85;;;3.17;;
68940;SDS011;55982;51.476;7.552;2023-03-19T02:58:58;7.03;;;3.75;;
68940;SDS011;55982;51.476;7.552;2023-03-19T03:01:23;6.72;;;3.13;;
68940;SDS011;55982;51.476;7.552;2023-03-19T03:03:50;9.85;;;3.08;;
68940;SDS011;55982;51.476;7.552;2023-03-19T03:06:15;8.88;;;2.60;;
68940;SDS011;55982;51.476;7.552;2023-03-19T03:08:42;5.28;;;2.30;;
68940;SDS011;55982;51.476;7.552;2023-03-19T03:11:07;6.00;;;2.47;;
68940;SDS011;55982;51.476;7.552;2023-03-19T03:13:33;5.20;;;2.75;;
68940;SDS011;55982;51.476;7.552;2023-03-19T03:15:58;4.93;;;2.70;;
68940;SDS011;55982;51.476;7.552;2023-03-19T03:18:24;8.15;;;2.97;;
68940;SDS011;55982;51.476;7.552;2023-03-19T03:20:49;6.65;;;2.75;;
68940;SDS011;55982;51.476;7.552;2023-03-19T03:23:15;9.30;;;2.67;;
68940;SDS011;55982;51.476;7.552;2023-03-19T03:25:41;6.65;;;2.85;;
68940;SDS011;55982;51.476;7.552;2023-03-19T03:28:06;6.55;;;2.80;;
68940;SDS011;55982;51.476;7.552;2023-03-19T03:30:31;5.15;;;2.80;;
68940;SDS011;55982;51.476;7.552;2023-03-19T03:32:57;7.53;;;3.10;;
68940;SDS011;55982;51.476;7.552;2023-03-19T03:35:22;6.63;;;2.67;;
68940;SDS011;55982;51.476;7.552;2023-03-19T03:37:48;7.13;;;2.53;;
68940;SDS011;55982;51.476;7.552;2023-03-19T03:40:15;6.97;;;2.47;;
68940;SDS011;55982;51.476;7.552;2023-03-19T03:42:41;8.68;;;3.17;;
68940;SDS011;55982;51.476;7.552;2023-03-19T03:45:07;7.85;;;2.78;;
68940;SDS011;55982;51.476;7.552;2023-03-19T03:47:34;4.28;;;2.67;;
68940;SDS011;55982;51.476;7.552;2023-03-19T03:50:00;4.82;;;2.53;;
68940;SDS011;55982;51.476;7.552;2023-03-19T03:52:25;5.57;;;2.70;;
68940;SDS011;55982;51.476;7.552;2023-03-19T03:54:55;7.68;;;2.58;;
68940;SDS011;55982;51.476;7.552;2023-03-19T03:57:25;6.00;;;2.58;;
68940;SDS011;55982;51.476;7.552;2023-03-19T03:59:51;6.82;;;2.35;;
68940;SDS011;55982;51.476;7.552;2023-03-19T04:02:17;5.75;;;2.78;;
68940;SDS011;55982;51.476;7.552;2023-03-19T04:04:42;4.97;;;2.75;;
68940;SDS011;55982;51.476;7.552;2023-03-19T04:07:07;3.35;;;2.50;;
68940;SDS011;55982;51.476;7.552;2023-03-19T04:09:33;7.65;;;2.58;;
68940;SDS011;55982;51.476;7.552;2023-03-19T04:11:58;6.63;;;2.90;;
68940;SDS011;55982;51.476;7.552;2023-03-19T04:14:24;5.60;;;2.97;;
68940;SDS011;55982;51.476;7.552;2023-03-19T04:16:51;6.68;;;2.92;;
68940;SDS011;55982;51.476;7.552;2023-03-19T04:19:16;5.35;;;2.72;;
68940;SDS011;55982;51.476;7.552;2023-03-19T04:21:41;6.45;;;2.97;;
68940;SDS011;55982;51.476;7.552;2023-03-19T04:24:07;6.28;;;2.67;;
68940;SDS011;55982;51.476;7.552;2023-03-19T04:26:34;6.22;;;2.47;;
68940;SDS011;55982;51.476;7.552;2023-03-19T04:29:00;8.43;;;2.75;;
68940;SDS011;55982;51.476;7.552;2023-03-19T04:31:26;6.35;;;2.72;;
68940;SDS011;55982;51.476;7.552;2023-03-19T04:33:51;7.63;;;3.05;;
68940;SDS011;55982;51.476;7.552;2023-03-19T04:36:17;4.80;;;2.70;;
68940;SDS011;55982;51.476;7.552;2023-03-19T04:38:42;7.78;;;2.50;;
68940;SDS011;55982;51.476;7.552;2023-03-19T04:41:08;5.85;;;2.75;;
68940;SDS011;55982;51.476;7.552;2023-03-19T04:43:33;7.22;;;2.53;;
68940;SDS011;55982;51.476;7.552;2023-03-19T04:45:59;9.38;;;2.95;;
68940;SDS011;55982;51.476;7.552;2023-03-19T04:48:24;4.80;;;3.10;;
68940;SDS011;55982;51.476;7.552;2023-03-19T04:50:50;8.93;;;2.78;;
68940;SDS011;55982;51.476;7.552;2023-03-19T04:53:17;5.85;;;2.60;;
68940;SDS011;55982;51.476;7.552;2023-03-19T04:55:44;7.40;;;2.97;;
68940;SDS011;55982;51.476;7.552;2023-03-19T04:58:10;4.82;;;2.63;;
68940;SDS011;55982;51.476;7.552;2023-03-19T05:00:36;5.57;;;2.72;;
68940;SDS011;55982;51.476;7.552;2023-03-19T05:03:02;6.18;;;3.10;;
68940;SDS011;55982;51.476;7.552;2023-03-19T05:05:27;6.47;;;2.88;;
68940;SDS011;55982;51.476;7.552;2023-03-19T05:07:53;5.15;;;2.65;;
68940;SDS011;55982;51.476;7.552;2023-03-19T05:10:18;6.60;;;3.13;;
68940;SDS011;55982;51.476;7.552;2023-03-19T05:12:43;5.65;;;2.95;;
68940;SDS011;55982;51.476;7.552;2023-03-19T05:15:09;4.93;;;2.55;;
68940;SDS011;55982;51.476;7.552;2023-03-19T05:17:34;6.15;;;3.17;;
68940;SDS011;55982;51.476;7.552;2023-03-19T05:20:00;4.53;;;3.35;;
68940;SDS011;55982;51.476;7.552;2023-03-19T05:22:26;7.18;;;2.88;;
68940;SDS011;55982;51.476;7.552;2023-03-19T05:24:52;6.03;;;3.05;;
68940;SDS011;55982;51.476;7.552;2023-03-19T05:27:18;5.60;;;3.13;;
68940;SDS011;55982;51.476;7.552;2023-03-19T05:29:44;5.95;;;3.03;;
68940;SDS011;55982;51.476;7.552;2023-03-19T05:32:10;5.53;;;3.35;;
68940;SDS011;55982;51.476;7.552;2023-03-19T05:34:36;5.10;;;3.20;;
68940;SDS011;55982;51.476;7.552;2023-03-19T05:37:01;6.15;;;2.83;;
68940;SDS011;55982;51.476;7.552;2023-03-19T05:39:27;5.03;;;2.85;;
68940;SDS011;55982;51.476;7.552;2023-03-19T05:41:52;7.72;;;3.45;;
68940;SDS011;55982;51.476;7.552;2023-03-19T05:44:18;7.43;;;3.22;;
68940;SDS011;55982;51.476;7.552;2023-03-19T05:46:43;5.47;;;3.15;;
68940;SDS011;55982;51.476;7.552;2023-03-19T05:49:08;7.45;;;3.20;;
68940;SDS011;55982;51.476;7.552;2023-03-19T05:51:34;8.13;;;3.50;;
68940;SDS011;55982;51.476;7.552;2023-03-19T05:54:00;7.47;;;4.03;;
68940;SDS011;55982;51.476;7.552;2023-03-19T05:56:25;5.47;;;3.13;;
68940;SDS011;55982;51.476;7.552;2023-03-19T05:58:51;5.70;;;3.75;;
68940;SDS011;55982;51.476;7.552;2023-03-19T06:01:17;7.82;;;3.47;;
68940;SDS011;55982;51.476;7.552;2023-03-19T06:03:42;8.52;;;3.80;;
68940;SDS011;55982;51.476;7.552;2023-03-19T06:06:07;5.25;;;3.30;;
68940;SDS011;55982;51.476;7.552;2023-03-19T06:08:33;9.02;;;3.20;;
68940;SDS011;55982;51.476;7.552;2023-03-19T06:10:58;5.68;;;2.97;;
68940;SDS011;55982;51.476;7.552;2023-03-19T06:13:24;4.53;;;3.00;;
68940;SDS011;55982;51.476;7.552;2023-03-19T06:15:49;7.35;;;3.53;;
68940;SDS011;55982;51.476;7.552;2023-03-19T06:18:16;7.15;;;2.75;;
68940;SDS011;55982;51.476;7.552;2023-03-19T06:20:42;7.10;;;3.47;;
68940;SDS011;55982;51.476;7.552;2023-03-19T06:23:07;6.63;;;2.95;;
68940;SDS011;55982;51.476;7.552;2023-03-19T06:25:33;3.20;;;2.22;;
68940;SDS011;55982;51.476;7.552;2023-03-19T06:27:58;7.05;;;2.60;;
68940;SDS011;55982;51.476;7.552;2023-03-19T06:30:24;6.20;;;2.70;;
68940;SDS011;55982;51.476;7.552;2023-03-19T06:32:50;6.53;;;2.63;;
68940;SDS011;55982;51.476;7.552;2023-03-19T06:35:16;4.78;;;2.70;;
68940;SDS011;55982;51.476;7.552;2023-03-19T06:37:41;7.70;;;2.72;;
68940;SDS011;55982;51.476;7.552;2023-03-19T06:40:07;5.80;;;2.50;;
68940;SDS011;55982;51.476;7.552;2023-03-19T06:42:33;3.83;;;2.45;;
68940;SDS011;55982;51.476;7.552;2023-03-19T06:44:59;5.85;;;2.83;;
68940;SDS011;55982;51.476;7.552;2023-03-19T06:47:25;3.88;;;2.30;;
68940;SDS011;55982;51.476;7.552;2023-03-19T06:49:50;6.53;;;2.80;;
68940;SDS011;55982;51.476;7.552;2023-03-19T06:52:16;9.93;;;3.22;;
68940;SDS011;55982;51.476;7.552;2023-03-19T06:54:41;4.05;;;2.90;;
68940;SDS011;55982;51.476;7.552;2023-03-19T06:57:07;6.07;;;2.90;;
68940;SDS011;55982;51.476;7.552;2023-03-19T06:59:32;7.43;;;2.47;;
68940;SDS011;55982;51.476;7.552;2023-03-19T07:01:57;6.65;;;2.55;;
68940;SDS011;55982;51.476;7.552;2023-03-19T07:04:23;4.72;;;2.78;;
68940;SDS011;55982;51.476;7.552;2023-03-19T07:06:48;4.20;;;2.50;;
68940;SDS011;55982;51.476;7.552;2023-03-19T07:09:13;5.88;;;2.58;;
68940;SDS011;55982;51.476;7.552;2023-03-19T07:11:39;4.05;;;2.55;;
68940;SDS011;55982;51.476;7.552;2023-03-19T07:14:05;6.70;;;2.70;;
68940;SDS011;55982;51.476;7.552;2023-03-19T07:16:30;4.45;;;2.38;;
68940;SDS011;55982;51.476;7.552;2023-03-19T07:18:56;7.28;;;2.53;;
68940;SDS011;55982;51.476;7.552;2023-03-19T07:21:21;5.00;;;3.00;;
68940;SDS011;55982;51.476;7.552;2023-03-19T07:23:47;6.20;;;2.58;;
68940;SDS011;55982;51.476;7.552;2023-03-19T07:26:14;5.65;;;2.70;;
68940;SDS011;55982;51.476;7.552;2023-03-19T07:28:40;5.47;;;2.80;;
68940;SDS011;55982;51.476;7.552;2023-03-19T07:31:05;4.00;;;2.42;;
68940;SDS011;55982;51.476;7.552;2023-03-19T07:33:31;3.22;;;2.53;;
68940;SDS011;55982;51.476;7.552;2023-03-19T07:35:56;5.85;;;3.05;;
68940;SDS011;55982;51.476;7.552;2023-03-19T07:38:21;5.97;;;3.00;;
68940;SDS011;55982;51.476;7.552;2023-03-19T07:40:48;4.30;;;2.78;;
68940;SDS011;55982;51.476;7.552;2023-03-19T07:43:14;6.35;;;3.45;;
68940;SDS011;55982;51.476;7.552;2023-03-19T07:45:39;6.07;;;2.85;;
68940;SDS011;55982;51.476;7.552;2023-03-19T07:48:05;3.92;;;2.40;;
68940;SDS011;55982;51.476;7.552;2023-03-19T07:50:30;3.60;;;2.40;;
68940;SDS011;55982;51.476;7.552;2023-03-19T07:52:56;5.18;;;2.75;;
68940;SDS011;55982;51.476;7.552;2023-03-19T07:55:22;3.55;;;2.17;;
68940;SDS011;55982;51.476;7.552;2023-03-19T07:57:47;4.32;;;2.28;;
68940;SDS011;55982;51.476;7.552;2023-03-19T08:00:13;4.45;;;2.60;;
68940;SDS011;55982;51.476;7.552;2023-03-19T08:02:39;2.90;;;2.50;;
68940;SDS011;55982;51.476;7.552;2023-03-19T08:05:06;6.32;;;2.67;;
68940;SDS011;55982;51.476;7.552;2023-03-19T08:07:32;4.35;;;2.33;;
68940;SDS011;55982;51.476;7.552;2023-03-19T08:09:58;3.78;;;2.35;;
68940;SDS011;55982;51.476;7.552;2023-03-19T08:12:23;4.47;;;2.50;;
68940;SDS011;55982;51.476;7.552;2023-03-19T08:14:50;4.63;;;3.10;;
68940;SDS011;55982;51.476;7.552;2023-03-19T08:17:15;3.67;;;2.67;;
68940;SDS011;55982;51.476;7.552;2023-03-19T08:19:41;4.20;;;2.97;;
68940;SDS011;55982;51.476;7.552;2023-03-19T08:22:07;4.95;;;3.25;;
68940;SDS011;55982;51.476;7.552;2023-03-19T08:24:32;10.15;;;4.00;;
68940;SDS011;55982;51.476;7.552;2023-03-19T08:26:57;6.07;;;4.20;;
68940;SDS011;55982;51.476;7.552;2023-03-19T08:29:23;7.88;;;5.05;;
68940;SDS011;55982;51.476;7.552;2023-03-19T08:31:51;8.57;;;4.32;;
68940;SDS011;55982;51.476;7.552;2023-03-19T08:34:16;7.57;;;4.70;;
68940;SDS011;55982;51.476;7.552;2023-03-19T08:36:41;11.23;;;5.10;;
68940;SDS011;55982;51.476;7.552;2023-03-19T08:39:07;7.07;;;4.97;;
68940;SDS011;55982;51.476;7.552;2023-03-19T08:41:32;8.90;;;5.50;;
68940;SDS011;55982;51.476;7.552;2023-03-19T08:43:58;8.45;;;5.50;;
68940;SDS011;55982;51.476;7.552;2023-03-19T08:46:23;8.60;;;5.80;;
68940;SDS011;55982;51.476;7.552;2023-03-19T08:48:49;7.22;;;5.40;;
68940;SDS011;55982;51.476;7.552;2023-03-19T08:51:14;8.38;;;5.32;;
68940;SDS011;55982;51.476;7.552;2023-03-19T08:53:39;7.25;;;5.40;;
68940;SDS011;55982;51.476;7.552;2023-03-19T08:56:05;9.40;;;5.90;;
68940;SDS011;55982;51.476;7.552;2023-03-19T08:58:32;9.05;;;6.45;;
68940;SDS011;55982;51.476;7.552;2023-03-19T09:01:01;9.13;;;6.15;;
68940;SDS011;55982;51.476;7.552;2023-03-19T09:03:28;7.63;;;4.90;;
68940;SDS011;55982;51.476;7.552;2023-03-19T09:06:04;5.93;;;4.30;;
68940;SDS011;55982;51.476;7.552;2023-03-19T09:08:31;5.00;;;3.25;;
68940;SDS011;55982;51.476;7.552;2023-03-19T09:10:58;5.10;;;3.00;;
68940;SDS011;55982;51.476;7.552;2023-03-19T09:13:24;4.18;;;2.90;;
68940;SDS011;55982;51.476;7.552;2023-03-19T09:15:49;4.25;;;3.15;;
68940;SDS011;55982;51.476;7.552;2023-03-19T09:18:15;4.47;;;3.40;;
68940;SDS011;55982;51.476;7.552;2023-03-19T09:20:41;6.50;;;3.72;;
68940;SDS011;55982;51.476;7.552;2023-03-19T09:23:07;6.07;;;4.03;;
68940;SDS011;55982;51.476;7.552;2023-03-19T09:25:32;6.50;;;4.20;;
68940;SDS011;55982;51.476;7.552;2023-03-19T09:27:58;6.50;;;4.18;;
68940;SDS011;55982;51.476;7.552;2023-03-19T09:30:23;6.25;;;4.35;;
68940;SDS011;55982;51.476;7.552;2023-03-19T09:32:49;6.75;;;4.28;;
68940;SDS011;55982;51.476;7.552;2023-03-19T09:35:14;5.00;;;3.58;;
68940;SDS011;55982;51.476;7.552;2023-03-19T09:37:40;6.68;;;3.78;;
68940;SDS011;55982;51.476;7.552;2023-03-19T09:40:05;5.60;;;3.97;;
68940;SDS011;55982;51.476;7.552;2023-03-19T09:42:51;7.32;;;3.63;;
68940;SDS011;55982;51.476;7.552;2023-03-19T09:45:37;4.63;;;3.35;;
68940;SDS011;55982;51.476;7.552;2023-03-19T09:48:04;6.20;;;3.95;;
68940;SDS011;55982;51.476;7.552;2023-03-19T09:50:35;5.43;;;3.70;;
68940;SDS011;55982;51.476;7.552;2023-03-19T09:56:04;6.45;;;4.05;;
68940;SDS011;55982;51.476;7.552;2023-03-19T09:58:34;6.63;;;4.55;;
68940;SDS011;55982;51.476;7.552;2023-03-19T10:01:00;9.52;;;5.00;;
68940;SDS011;55982;51.476;7.552;2023-03-19T10:06:29;11.63;;;5.72;;
68940;SDS011;55982;51.476;7.552;2023-03-19T10:09:19;8.50;;;4.93;;
68940;SDS011;55982;51.476;7.552;2023-03-19T10:15:16;5.47;;;3.60;;
68940;SDS011;55982;51.476;7.552;2023-03-19T10:18:16;6.45;;;4.10;;
68940;SDS011;55982;51.476;7.552;2023-03-19T10:20:48;6.50;;;4.47;;
68940;SDS011;55982;51.476;7.552;2023-03-19T10:26:02;7.20;;;4.47;;
68940;SDS011;55982;51.476;7.552;2023-03-19T10:28:30;5.93;;;3.80;;
68940;SDS011;55982;51.476;7.552;2023-03-19T10:36:25;8.25;;;5.30;;
68940;SDS011;55982;51.476;7.552;2023-03-19T10:38:54;8.27;;;5.53;;
68940;SDS011;55982;51.476;7.552;2023-03-19T10:46:58;8.27;;;6.28;;
68940;SDS011;55982;51.476;7.552;2023-03-19T10:49:33;7.80;;;5.65;;
68940;SDS011;55982;51.476;7.552;2023-03-19T10:51:59;6.63;;;5.15;;
68940;SDS011;55982;51.476;7.552;2023-03-19T10:54:26;7.65;;;5.07;;
68940;SDS011;55982;51.476;7.552;2023-03-19T10:56:55;7.45;;;5.10;;
68940;SDS011;55982;51.476;7.552;2023-03-19T11:01:55;7.95;;;5.78;;
68940;SDS011;55982;51.476;7.552;2023-03-19T11:04:22;7.53;;;5.45;;
68940;SDS011;55982;51.476;7.552;2023-03-19T11:06:50;7.20;;;5.43;;
68940;SDS011;55982;51.476;7.552;2023-03-19T11:09:18;5.90;;;5.05;;
68940;SDS011;55982;51.476;7.552;2023-03-19T11:12:06;7.10;;;4.57;;
68940;SDS011;55982;51.476;7.552;2023-03-19T11:14:35;7.50;;;5.13;;
68940;SDS011;55982;51.476;7.552;2023-03-19T11:17:24;5.63;;;4.50;;
68940;SDS011;55982;51.476;7.552;2023-03-19T11:19:53;5.05;;;4.00;;
68940;SDS011;55982;51.476;7.552;2023-03-19T11:22:32;6.55;;;4.82;;
68940;SDS011;55982;51.476;7.552;2023-03-19T11:25:13;6.72;;;5.05;;
68940;SDS011;55982;51.476;7.552;2023-03-19T11:27:39;4.57;;;3.53;;
68940;SDS011;55982;51.476;7.552;2023-03-19T11:30:16;3.88;;;3.03;;
68940;SDS011;55982;51.476;7.552;2023-03-19T11:38:29;4.35;;;3.95;;
68940;SDS011;55982;51.476;7.552;2023-03-19T11:41:24;4.80;;;4.25;;
68940;SDS011;55982;51.476;7.552;2023-03-19T11:44:14;7.80;;;4.20;;
68940;SDS011;55982;51.476;7.552;2023-03-19T11:46:50;5.13;;;4.43;;
68940;SDS011;55982;51.476;7.552;2023-03-19T11:49:27;6.05;;;4.63;;
68940;SDS011;55982;51.476;7.552;2023-03-19T12:00:06;3.97;;;3.58;;
68940;SDS011;55982;51.476;7.552;2023-03-19T12:02:44;4.10;;;2.92;;
68940;SDS011;55982;51.476;7.552;2023-03-19T12:10:25;2.53;;;2.33;;
68940;SDS011;55982;51.476;7.552;2023-03-19T12:24:31;2.33;;;2.13;;
68940;SDS011;55982;51.476;7.552;2023-03-19T12:26:48;2.55;;;1.80;;
68940;SDS011;55982;51.476;7.552;2023-03-19T12:29:43;3.63;;;1.83;;
68940;SDS011;55982;51.476;7.552;2023-03-19T12:35:15;1.88;;;1.77;;
68940;SDS011;55982;51.476;7.552;2023-03-19T12:40:24;2.70;;;2.50;;
68940;SDS011;55982;51.476;7.552;2023-03-19T12:42:56;3.15;;;2.00;;
68940;SDS011;55982;51.476;7.552;2023-03-19T12:48:13;2.78;;;1.77;;
68940;SDS011;55982;51.476;7.552;2023-03-19T12:50:46;3.22;;;1.90;;
68940;SDS011;55982;51.476;7.552;2023-03-19T12:53:26;2.85;;;1.67;;
68940;SDS011;55982;51.476;7.552;2023-03-19T12:55:52;3.45;;;2.40;;
68940;SDS011;55982;51.476;7.552;2023-03-19T12:58:28;5.22;;;3.58;;
68940;SDS011;55982;51.476;7.552;2023-03-19T13:01:13;4.03;;;3.55;;
68940;SDS011;55982;51.476;7.552;2023-03-19T13:03:53;4.60;;;3.05;;
68940;SDS011;55982;51.476;7.552;2023-03-19T13:09:12;1.30;;;1.20;;
68940;SDS011;55982;51.476;7.552;2023-03-19T13:11:45;1.40;;;1.30;;
68940;SDS011;55982;51.476;7.552;2023-03-19T13:19:59;1.92;;;1.60;;
68940;SDS011;55982;51.476;7.552;2023-03-19T13:22:33;2.50;;;1.88;;
68940;SDS011;55982;51.476;7.552;2023-03-19T13:25:01;2.13;;;1.88;;
68940;SDS011;55982;51.476;7.552;2023-03-19T13:27:32;1.83;;;1.70;;
68940;SDS011;55982;51.476;7.552;2023-03-19T13:37:57;2.95;;;2.40;;
68940;SDS011;55982;51.476;7.552;2023-03-19T13:40:42;3.58;;;2.40;;
68940;SDS011;55982;51.476;7.552;2023-03-19T13:54:03;5.90;;;3.90;;
68940;SDS011;55982;51.476;7.552;2023-03-19T13:59:39;6.40;;;3.88;;
68940;SDS011;55982;51.476;7.552;2023-03-19T14:07:37;7.75;;;5.45;;
68940;SDS011;55982;51.476;7.552;2023-03-19T14:10:12;7.85;;;5.18;;
68940;SDS011;55982;51.476;7.552;2023-03-19T14:12:39;7.90;;;5.95;;
68940;SDS011;55982;51.476;7.552;2023-03-19T14:17:37;7.15;;;5.32;;
68940;SDS011;55982;51.476;7.552;2023-03-19T14:20:31;9.70;;;5.60;;
68940;SDS011;55982;51.476;7.552;2023-03-19T14:25:50;7.55;;;5.75;;
68940;SDS011;55982;51.476;7.552;2023-03-19T14:28:24;7.38;;;5.40;;
68940;SDS011;55982;51.476;7.552;2023-03-19T14:36:17;6.70;;;5.18;;
68940;SDS011;55982;51.476;7.552;2023-03-19T14:38:53;6.35;;;4.80;;
68940;SDS011;55982;51.476;7.552;2023-03-19T14:41:24;6.80;;;5.35;;
68940;SDS011;55982;51.476;7.552;2023-03-19T14:46:45;5.80;;;4.55;;
68940;SDS011;55982;51.476;7.552;2023-03-19T14:52:29;8.15;;;5.03;;
68940;SDS011;55982;51.476;7.552;2023-03-19T14:54:59;8.88;;;5.90;;
68940;SDS011;55982;51.476;7.552;2023-03-19T14:59:52;7.50;;;5.95;;
68940;SDS011;55982;51.476;7.552;2023-03-19T15:02:19;10.52;;;6.13;;
68940;SDS011;55982;51.476;7.552;2023-03-19T15:04:51;10.35;;;6.30;;
68940;SDS011;55982;51.476;7.552;2023-03-19T15:07:19;10.93;;;6.80;;
68940;SDS011;55982;51.476;7.552;2023-03-19T15:09:51;7.80;;;6.20;;
68940;SDS011;55982;51.476;7.552;2023-03-19T15:12:22;9.25;;;6.60;;
68940;SDS011;55982;51.476;7.552;2023-03-19T15:15:06;8.13;;;6.45;;
68940;SDS011;55982;51.476;7.552;2023-03-19T15:17:56;9.77;;;7.53;;
68940;SDS011;55982;51.476;7.552;2023-03-19T15:20:24;10.52;;;7.05;;
68940;SDS011;55982;51.476;7.552;2023-03-19T15:22:58;12.32;;;7.68;;
68940;SDS011;55982;51.476;7.552;2023-03-19T15:25:25;13.47;;;8.33;;
68940;SDS011;55982;51.476;7.552;2023-03-19T15:31:00;11.23;;;7.55;;
68940;SDS011;55982;51.476;7.552;2023-03-19T15:33:31;11.05;;;7.95;;
68940;SDS011;55982;51.476;7.552;2023-03-19T15:39:05;11.40;;;7.90;;
68940;SDS011;55982;51.476;7.552;2023-03-19T15:41:34;9.55;;;7.60;;
68940;SDS011;55982;51.476;7.552;2023-03-19T15:44:04;12.85;;;7.65;;
68940;SDS011;55982;51.476;7.552;2023-03-19T15:46:34;9.82;;;7.40;;
68940;SDS011;55982;51.476;7.552;2023-03-19T15:49:11;8.73;;;7.03;;
68940;SDS011;55982;51.476;7.552;2023-03-19T15:51:41;9.50;;;7.22;;
68940;SDS011;55982;51.476;7.552;2023-03-19T15:54:13;11.50;;;7.57;;
68940;SDS011;55982;51.476;7.552;2023-03-19T15:56:38;10.10;;;7.18;;
68940;SDS011;55982;51.476;7.552;2023-03-19T15:59:04;11.93;;;8.00;;
68940;SDS011;55982;51.476;7.552;2023-03-19T16:01:30;11.80;;;7.88;;
68940;SDS011;55982;51.476;7.552;2023-03-19T16:03:58;11.00;;;7.53;;
68940;SDS011;55982;51.476;7.552;2023-03-19T16:06:27;10.10;;;7.65;;
68940;SDS011;55982;51.476;7.552;2023-03-19T16:08:54;11.57;;;8.50;;
68940;SDS011;55982;51.476;7.552;2023-03-19T16:11:34;12.68;;;8.98;;
68940;SDS011;55982;51.476;7.552;2023-03-19T16:14:08;13.65;;;9.70;;
68940;SDS011;55982;51.476;7.552;2023-03-19T16:16:36;12.48;;;8.88;;
68940;SDS011;55982;51.476;7.552;2023-03-19T16:19:04;12.70;;;8.32;;
68940;SDS011;55982;51.476;7.552;2023-03-19T16:21:37;12.65;;;7.85;;
68940;SDS011;55982;51.476;7.552;2023-03-19T16:29:01;10.30;;;7.88;;
68940;SDS011;55982;51.476;7.552;2023-03-19T16:31:29;12.60;;;8.52;;
68940;SDS011;55982;51.476;7.552;2023-03-19T16:34:00;9.77;;;7.88;;
68940;SDS011;55982;51.476;7.552;2023-03-19T16:36:30;10.02;;;7.93;;
68940;SDS011;55982;51.476;7.552;2023-03-19T16:44:41;12.70;;;7.85;;
68940;SDS011;55982;51.476;7.552;2023-03-19T16:47:10;9.77;;;7.32;;
68940;SDS011;55982;51.476;7.552;2023-03-19T16:49:37;10.32;;;7.70;;
68940;SDS011;55982;51.476;7.552;2023-03-19T16:52:02;11.30;;;7.88;;
68940;SDS011;55982;51.476;7.552;2023-03-19T16:54:28;10.93;;;7.18;;
68940;SDS011;55982;51.476;7.552;2023-03-19T16:56:54;9.68;;;6.95;;
68940;SDS011;55982;51.476;7.552;2023-03-19T16:59:22;10.05;;;6.82;;
68940;SDS011;55982;51.476;7.552;2023-03-19T17:01:52;9.82;;;6.32;;
68940;SDS011;55982;51.476;7.552;2023-03-19T17:04:18;7.18;;;6.47;;
68940;SDS011;55982;51.476;7.552;2023-03-19T17:06:43;9.20;;;6.10;;
68940;SDS011;55982;51.476;7.552;2023-03-19T17:09:09;11.38;;;7.00;;
68940;SDS011;55982;51.476;7.552;2023-03-19T17:11:36;9.25;;;6.90;;
68940;SDS011;55982;51.476;7.552;2023-03-19T17:14:06;10.90;;;6.88;;